Allendorf, Iowa
Current Conditions -  °F | °C
As of 2:35 AM on Sunday 23 Nov 2014 (Local Time) from KSHL Reporting Station
Haze Haze  
Wind Chill: 50°   Ceiling: 700
Heat Index: 50°   Visibility: 6mi
Dew Point: 50°   Wind: 13mph
Humidity: 100%   Direction: 200°SSW
Pressure: 29.44"   Gusts: NA
Location:  43.41°N, 95.64°W
Report Text: KSHL 230835Z AUTO 20011KT 6SM BR BKN007 BKN014 OVC110 10/10 A2944 RMK AO2
Loading
Personal Weather Stations






























Interactive Weather Map New forecast layout! Learn more

10-Day Weather Forecast

Advertisements
Track Severe Weather on mobile